Time;durP1;ratioP1;P1;durP2;ratioP2;P2;SDS_P1;SDS_P2;PMS_P1;PMS_P2;Temp;Humidity;BMP_temperature;BMP_pressure;BME280_temperature;BME280_humidity;BME280_pressure;Samples;Min_cycle;Max_cycle;Signal;HPM_P1;HPM_P2
2023/09/06 00:02:16;;;;;;;1.92;1.60;;;24.80;96.70;;;;;;5071682;28;20055;-76
2023/09/06 00:04:45;;;;;;;3.80;1.40;;;24.80;96.70;;;;;;5106447;28;20088;-76
2023/09/06 00:07:14;;;;;;;2.97;1.48;;;24.90;96.70;;;;;;5071364;28;20047;-76
2023/09/06 00:09:42;;;;;;;2.65;1.45;;;24.90;96.70;;;;;;5101657;27;20487;-77
2023/09/06 00:12:11;;;;;;;2.42;1.52;;;24.90;96.70;;;;;;5105875;28;20047;-77
2023/09/06 00:14:39;;;;;;;2.55;1.30;;;24.90;96.70;;;;;;5088732;28;20043;-77
2023/09/06 00:17:07;;;;;;;2.30;1.70;;;24.80;96.70;;;;;;5106234;28;20127;-76
2023/09/06 00:19:36;;;;;;;3.15;1.80;;;24.60;96.70;;;;;;5101977;28;20595;-76
2023/09/06 00:22:04;;;;;;;3.97;1.65;;;24.70;96.70;;;;;;5071519;28;20079;-76
2023/09/06 00:24:32;;;;;;;3.90;1.65;;;24.60;96.70;;;;;;5087939;28;20130;-76
2023/09/06 00:27:04;;;;;;;2.33;1.50;;;24.60;96.70;;;;;;5105950;28;20051;-77
2023/09/06 00:29:34;;;;;;;1.95;1.48;;;24.40;96.70;;;;;;5088348;28;20461;-76
2023/09/06 00:32:02;;;;;;;3.22;1.60;;;24.40;96.70;;;;;;5071004;28;20056;-76
2023/09/06 00:34:33;;;;;;;3.13;1.48;;;24.40;96.70;;;;;;5087089;28;20487;-76
2023/09/06 00:37:02;;;;;;;3.13;1.83;;;24.40;96.70;;;;;;5071025;28;20463;-76
2023/09/06 00:39:31;;;;;;;2.83;1.70;;;24.40;96.70;;;;;;5096936;28;20067;-76
2023/09/06 00:42:00;;;;;;;5.03;1.55;;;24.40;96.70;;;;;;5105760;28;20115;-76
2023/09/06 00:44:28;;;;;;;3.13;1.67;;;24.30;96.70;;;;;;5100490;28;20052;-76
2023/09/06 00:47:00;;;;;;;2.45;1.50;;;24.40;96.70;;;;;;5070489;28;20059;-77
2023/09/06 00:49:29;;;;;;;2.05;1.25;;;24.30;96.70;;;;;;5087310;28;20420;-76
2023/09/06 00:51:57;;;;;;;2.08;1.65;;;24.40;96.70;;;;;;5105630;28;20036;-75
2023/09/06 00:54:25;;;;;;;3.53;1.50;;;24.50;96.70;;;;;;5067527;28;20192;-76
2023/09/06 00:56:53;;;;;;;2.70;1.45;;;24.50;96.70;;;;;;5085137;28;20453;-76
2023/09/06 00:59:23;;;;;;;2.70;1.50;;;24.50;96.70;;;;;;5086923;28;20046;-77
2023/09/06 01:01:51;;;;;;;3.00;1.42;;;24.50;96.70;;;;;;5121755;27;20051;-77
2023/09/06 01:04:21;;;;;;;2.05;1.60;;;24.40;96.70;;;;;;5105888;28;20039;-76
2023/09/06 01:06:57;;;;;;;1.90;1.70;;;24.30;96.70;;;;;;5105610;28;20122;-76
2023/09/06 01:09:29;;;;;;;4.60;1.77;;;24.40;96.70;;;;;;5087833;28;20051;-77
2023/09/06 01:11:58;;;;;;;2.08;1.52;;;24.20;96.70;;;;;;5086823;28;20052;-76
2023/09/06 01:14:27;;;;;;;1.77;1.40;;;24.20;96.70;;;;;;5087266;28;20044;-76
2023/09/06 01:16:55;;;;;;;3.10;1.70;;;24.20;96.70;;;;;;5087337;28;20104;-76
2023/09/06 01:19:28;;;;;;;2.17;1.58;;;24.20;96.70;;;;;;5105420;28;20096;-76
2023/09/06 01:22:05;;;;;;;1.58;1.33;;;24.30;96.70;;;;;;5087225;28;20055;-77
2023/09/06 01:24:35;;;;;;;3.88;1.60;;;24.10;96.70;;;;;;5097130;28;20397;-77
2023/09/06 01:27:05;;;;;;;3.05;1.45;;;23.70;96.70;;;;;;5070590;28;20043;-77
2023/09/06 01:29:34;;;;;;;3.63;1.63;;;23.80;96.70;;;;;;5084899;28;20496;-76
2023/09/06 01:32:05;;;;;;;1.77;1.40;;;23.90;96.70;;;;;;5087037;28;20047;-76
2023/09/06 01:34:33;;;;;;;2.78;1.52;;;23.90;96.70;;;;;;5104519;28;20052;-76
2023/09/06 01:37:01;;;;;;;3.90;1.70;;;24.00;96.70;;;;;;5065362;28;20051;-76
2023/09/06 01:39:29;;;;;;;3.50;1.70;;;24.00;96.70;;;;;;5070475;28;20047;-76
2023/09/06 01:41:58;;;;;;;1.98;1.67;;;24.00;96.70;;;;;;5086859;28;20075;-76
2023/09/06 01:44:26;;;;;;;3.35;1.55;;;23.80;96.70;;;;;;5098420;28;20052;-76
2023/09/06 01:46:55;;;;;;;1.92;1.40;;;23.80;96.70;;;;;;5088445;28;20501;-75
2023/09/06 01:49:23;;;;;;;3.13;1.75;;;23.90;96.70;;;;;;5086965;28;20761;-76
2023/09/06 01:51:50;;;;;;;2.00;1.73;;;23.90;96.70;;;;;;5079009;28;20051;-77
2023/09/06 01:54:19;;;;;;;2.33;1.70;;;23.80;96.70;;;;;;5087320;28;20554;-76
2023/09/06 01:56:46;;;;;;;3.92;1.80;;;23.70;96.70;;;;;;5087199;28;20412;-76
2023/09/06 01:59:17;;;;;;;4.28;1.70;;;23.60;96.70;;;;;;5090168;28;20512;-76
2023/09/06 02:01:45;;;;;;;2.65;1.70;;;23.70;96.70;;;;;;5090524;28;20142;-76
2023/09/06 02:04:13;;;;;;;3.80;1.67;;;23.70;96.70;;;;;;5090869;28;20044;-76
2023/09/06 02:06:41;;;;;;;2.35;1.90;;;23.50;96.70;;;;;;5074253;28;20055;-76
2023/09/06 02:09:09;;;;;;;3.53;1.90;;;23.30;96.70;;;;;;5109085;28;20481;-76
2023/09/06 02:11:37;;;;;;;3.25;1.70;;;23.40;96.70;;;;;;5090605;28;20081;-76
2023/09/06 02:14:05;;;;;;;2.55;1.35;;;23.50;96.70;;;;;;5090090;28;20043;-76
2023/09/06 02:16:34;;;;;;;1.88;1.45;;;23.40;96.70;;;;;;5093067;28;20079;-76
2023/09/06 02:19:03;;;;;;;4.40;1.88;;;23.40;96.70;;;;;;5098520;28;20096;-75
2023/09/06 02:21:31;;;;;;;2.83;1.70;;;23.50;96.70;;;;;;5090010;28;20135;-76
2023/09/06 02:23:59;;;;;;;3.42;1.80;;;23.30;96.70;;;;;;5090097;28;20039;-75
2023/09/06 02:26:29;;;;;;;2.00;1.40;;;23.40;96.70;;;;;;5108269;28;20635;-76
2023/09/06 02:28:59;;;;;;;2.10;1.50;;;23.20;96.70;;;;;;5090382;28;20504;-76
2023/09/06 02:31:27;;;;;;;2.47;1.58;;;23.20;96.70;;;;;;5098796;28;20051;-76
2023/09/06 02:33:57;;;;;;;1.80;1.42;;;23.00;96.70;;;;;;5108035;28;20066;-76
2023/09/06 02:36:25;;;;;;;2.40;1.70;;;23.10;96.70;;;;;;5090309;28;20056;-76
2023/09/06 02:38:53;;;;;;;2.83;1.95;;;23.10;96.70;;;;;;5090803;28;20044;-76
2023/09/06 02:41:21;;;;;;;2.88;2.00;;;23.00;96.70;;;;;;5090590;28;20051;-76
2023/09/06 02:43:49;;;;;;;2.63;1.80;;;23.00;96.70;;;;;;5108078;28;20039;-77
2023/09/06 02:46:17;;;;;;;2.97;1.83;;;23.10;96.70;;;;;;5072862;28;20047;-76
2023/09/06 02:48:46;;;;;;;3.40;2.13;;;23.10;96.70;;;;;;5089569;28;20497;-77
2023/09/06 02:51:16;;;;;;;2.22;1.83;;;23.00;96.70;;;;;;5107968;28;20048;-77
2023/09/06 02:53:45;;;;;;;3.50;2.38;;;22.90;96.70;;;;;;5085955;28;20541;-77
2023/09/06 02:56:14;;;;;;;4.38;1.92;;;22.90;96.70;;;;;;5089314;28;20054;-77
2023/09/06 02:58:42;;;;;;;3.53;1.90;;;22.40;96.70;;;;;;5088954;28;20043;-76
2023/09/06 03:01:19;;;;;;;2.83;2.30;;;22.10;96.70;;;;;;5107398;28;20386;-76
2023/09/06 03:03:53;;;;;;;3.03;1.90;;;22.30;96.70;;;;;;5089640;28;20051;-76
2023/09/06 03:06:33;;;;;;;2.22;1.77;;;22.20;96.70;;;;;;5103809;28;20071;-76
2023/09/06 03:09:06;;;;;;;2.72;2.25;;;22.20;96.70;;;;;;5088799;28;20039;-76
2023/09/06 03:11:37;;;;;;;2.42;1.73;;;22.40;96.70;;;;;;5107601;28;20136;-76
2023/09/06 03:14:06;;;;;;;2.33;1.92;;;22.70;96.70;;;;;;5107205;28;20039;-76
2023/09/06 03:16:40;;;;;;;3.90;2.13;;;22.80;96.70;;;;;;5104329;28;20054;-77
2023/09/06 03:19:12;;;;;;;2.45;2.00;;;22.80;96.70;;;;;;5089081;28;20058;-77
2023/09/06 03:21:42;;;;;;;3.92;1.85;;;22.70;96.70;;;;;;5089075;28;20047;-76
2023/09/06 03:24:13;;;;;;;2.55;2.13;;;22.70;96.70;;;;;;5089391;28;20063;-76
2023/09/06 03:26:43;;;;;;;4.82;2.03;;;22.50;96.70;;;;;;5088859;28;20120;-76
2023/09/06 03:29:15;;;;;;;2.90;1.90;;;22.50;96.70;;;;;;5098548;28;20050;-76
2023/09/06 03:31:45;;;;;;;2.95;1.88;;;22.50;96.70;;;;;;5107080;28;20472;-76
2023/09/06 03:34:15;;;;;;;3.47;2.08;;;22.50;96.70;;;;;;5088585;28;20062;-76
2023/09/06 03:36:51;;;;;;;3.45;1.65;;;22.30;96.70;;;;;;5072626;28;20051;-76
2023/09/06 03:39:21;;;;;;;2.75;2.05;;;22.10;96.70;;;;;;5088904;28;20579;-76
2023/09/06 03:41:50;;;;;;;2.75;2.00;;;22.10;96.70;;;;;;5088671;28;20054;-75
2023/09/06 03:44:18;;;;;;;4.38;2.03;;;22.10;96.70;;;;;;5088375;28;20048;-76
2023/09/06 03:46:46;;;;;;;2.78;2.05;;;22.10;96.70;;;;;;5106881;28;20047;-77
2023/09/06 03:49:15;;;;;;;2.55;2.10;;;22.20;96.70;;;;;;5089045;28;20071;-76
2023/09/06 03:51:43;;;;;;;2.50;2.30;;;22.30;96.70;;;;;;5079682;28;20059;-76
2023/09/06 03:54:14;;;;;;;2.47;2.08;;;22.50;96.70;;;;;;5096910;28;20101;-76
2023/09/06 03:56:42;;;;;;;4.90;2.10;;;22.50;96.70;;;;;;5088771;28;20052;-77
2023/09/06 03:59:11;;;;;;;3.75;2.20;;;22.60;96.70;;;;;;5088167;28;20397;-76
2023/09/06 04:01:43;;;;;;;3.45;2.10;;;22.60;96.70;;;;;;5088452;28;20470;-76
2023/09/06 04:04:13;;;;;;;4.43;2.03;;;22.50;96.70;;;;;;5102591;28;20086;-76
2023/09/06 04:06:44;;;;;;;3.30;2.47;;;22.50;96.70;;;;;;5062310;28;20043;-76
2023/09/06 04:09:18;;;;;;;3.47;1.85;;;22.50;96.70;;;;;;5097698;28;20053;-76
2023/09/06 04:11:46;;;;;;;2.85;2.15;;;22.30;96.70;;;;;;5091604;28;20089;-76
2023/09/06 04:14:14;;;;;;;3.85;1.80;;;22.20;96.70;;;;;;5070997;28;20044;-76
2023/09/06 04:16:42;;;;;;;5.25;2.20;;;22.20;96.70;;;;;;5087786;28;20051;-76
2023/09/06 04:19:10;;;;;;;4.78;2.47;;;22.30;96.70;;;;;;5071065;28;20527;-76
2023/09/06 04:21:40;;;;;;;3.33;2.45;;;22.30;96.70;;;;;;5088276;28;20053;-76
2023/09/06 04:24:08;;;;;;;3.22;2.30;;;22.40;96.70;;;;;;5092223;28;20488;-76
2023/09/06 04:26:38;;;;;;;4.32;2.53;;;22.40;96.70;;;;;;5105957;28;20135;-76
2023/09/06 04:29:07;;;;;;;4.40;2.60;;;22.40;96.70;;;;;;5087006;28;20044;-76
2023/09/06 04:31:35;;;;;;;4.70;2.80;;;22.40;96.70;;;;;;5088415;28;20046;-76
2023/09/06 04:34:04;;;;;;;3.45;2.25;;;22.30;96.70;;;;;;5087626;28;20253;-76
2023/09/06 04:36:35;;;;;;;3.97;2.38;;;22.10;96.70;;;;;;5105860;28;20451;-76
2023/09/06 04:39:09;;;;;;;4.43;2.63;;;21.80;96.70;;;;;;5071723;28;20438;-76
2023/09/06 04:41:40;;;;;;;4.53;2.63;;;21.90;96.70;;;;;;5102279;28;20051;-76
2023/09/06 04:44:10;;;;;;;5.15;2.75;;;21.90;96.70;;;;;;5070802;28;20071;-76
2023/09/06 04:46:39;;;;;;;5.97;2.50;;;21.90;96.70;;;;;;5093683;28;20501;-75
2023/09/06 04:49:08;;;;;;;3.85;2.30;;;21.90;96.70;;;;;;5074951;28;20048;-76
2023/09/06 04:51:36;;;;;;;4.38;2.70;;;21.90;96.70;;;;;;5087437;28;20071;-76
2023/09/06 04:54:09;;;;;;;3.30;2.40;;;21.90;96.70;;;;;;5087372;28;20059;-76
2023/09/06 04:56:40;;;;;;;3.67;2.58;;;21.90;96.70;;;;;;5096330;28;20101;-76
2023/09/06 04:59:09;;;;;;;4.13;2.55;;;22.00;96.70;;;;;;5073985;28;20039;-75
2023/09/06 05:01:37;;;;;;;5.45;2.60;;;22.00;96.70;;;;;;5087433;28;20480;-76
2023/09/06 05:04:05;;;;;;;4.38;2.20;;;21.90;96.70;;;;;;5086766;28;20510;-76
2023/09/06 05:06:39;;;;;;;3.58;2.03;;;21.90;96.70;;;;;;5087283;28;20521;-77
2023/09/06 05:09:08;;;;;;;5.18;2.65;;;21.90;96.70;;;;;;5087796;28;20580;-76
2023/09/06 05:11:36;;;;;;;4.75;1.95;;;21.90;96.70;;;;;;5105595;28;20127;-76
2023/09/06 05:14:05;;;;;;;3.42;2.17;;;21.80;96.70;;;;;;5087387;28;20039;-76
2023/09/06 05:16:34;;;;;;;4.00;2.25;;;22.00;96.70;;;;;;5087260;28;20052;-76
2023/09/06 05:19:02;;;;;;;3.15;2.30;;;22.00;96.70;;;;;;5104608;28;20497;-75
2023/09/06 05:21:35;;;;;;;4.25;2.00;;;22.00;96.70;;;;;;5087389;28;20504;-76
2023/09/06 05:24:24;;;;;;;4.68;2.30;;;21.90;96.70;;;;;;5087137;28;20047;-76
2023/09/06 05:26:53;;;;;;;3.92;2.13;;;22.20;96.70;;;;;;4982139;28;20818;-76
2023/09/06 05:29:22;;;;;;;7.93;2.63;;;22.10;96.70;;;;;;4973740;28;20186;-76
2023/09/06 05:31:50;;;;;;;5.97;2.42;;;22.10;96.70;;;;;;4982360;28;20061;-76
2023/09/06 05:34:19;;;;;;;5.25;2.60;;;22.10;96.70;;;;;;4947124;28;20047;-76
2023/09/06 05:36:47;;;;;;;3.33;2.33;;;21.80;96.70;;;;;;4966669;28;20058;-76
2023/09/06 05:39:15;;;;;;;4.43;2.45;;;21.90;96.70;;;;;;4966451;28;20550;-76
2023/09/06 05:41:43;;;;;;;3.20;2.63;;;22.10;96.70;;;;;;4966390;28;20050;-76
2023/09/06 05:44:12;;;;;;;4.32;2.70;;;22.00;96.70;;;;;;4981887;28;20064;-76
2023/09/06 05:46:43;;;;;;;4.97;2.67;;;22.10;96.70;;;;;;4966571;28;20058;-76
2023/09/06 05:49:14;;;;;;;5.03;2.83;;;22.10;96.70;;;;;;4967410;28;20065;-76
2023/09/06 05:51:45;;;;;;;3.88;3.20;;;22.00;96.70;;;;;;4966717;28;20078;-76
2023/09/06 05:54:13;;;;;;;3.25;2.60;;;22.20;96.70;;;;;;4964118;28;20145;-76
2023/09/06 05:56:42;;;;;;;5.32;3.42;;;22.10;96.70;;;;;;4974209;28;20049;-76
2023/09/06 05:59:14;;;;;;;6.63;3.75;;;22.20;96.70;;;;;;5070236;28;20467;-76
2023/09/06 06:01:44;;;;;;;5.43;3.05;;;22.20;96.70;;;;;;5070492;28;20046;-76
2023/09/06 06:04:13;;;;;;;8.52;3.00;;;22.30;96.70;;;;;;5086807;28;20054;-76
2023/09/06 06:06:42;;;;;;;6.43;3.38;;;22.50;96.70;;;;;;5086252;28;20089;-76
2023/09/06 06:09:13;;;;;;;4.47;2.80;;;22.60;96.70;;;;;;5070228;28;20137;-76
2023/09/06 06:11:41;;;;;;;5.00;2.50;;;22.60;96.70;;;;;;5104910;28;20130;-76
2023/09/06 06:14:09;;;;;;;5.88;2.88;;;22.70;96.70;;;;;;5086248;28;20555;-76
2023/09/06 06:16:38;;;;;;;6.22;2.67;;;22.60;96.70;;;;;;5105038;28;20046;-76
2023/09/06 06:19:09;;;;;;;6.20;2.88;;;22.50;96.70;;;;;;5104472;28;20043;-76
2023/09/06 06:21:38;;;;;;;10.80;3.15;;;22.40;96.70;;;;;;5104727;28;20055;-76
2023/09/06 06:24:09;;;;;;;10.80;2.80;;;22.50;96.70;;;;;;5104656;28;20443;-77
2023/09/06 06:26:38;;;;;;;3.78;2.45;;;22.70;96.70;;;;;;5104951;28;20455;-76
2023/09/06 06:29:06;;;;;;;5.97;2.30;;;23.00;96.70;;;;;;5098979;28;20044;-75
2023/09/06 06:31:35;;;;;;;6.97;2.38;;;23.20;96.70;;;;;;5090778;28;20589;-76
2023/09/06 06:34:04;;;;;;;5.65;2.05;;;23.30;96.70;;;;;;5096356;28;20043;-77
2023/09/06 06:36:33;;;;;;;4.10;2.10;;;23.40;96.70;;;;;;5104367;28;20043;-76
2023/09/06 06:39:02;;;;;;;5.80;2.28;;;23.50;96.70;;;;;;5069470;28;20625;-76
2023/09/06 06:41:31;;;;;;;3.50;2.28;;;23.50;96.70;;;;;;5105094;28;20048;-77
2023/09/06 06:43:59;;;;;;;5.25;2.85;;;23.40;96.70;;;;;;5104651;28;20047;-76
2023/09/06 06:46:31;;;;;;;6.45;2.83;;;23.40;96.70;;;;;;5098870;28;20057;-77
2023/09/06 06:48:59;;;;;;;7.45;3.15;;;23.40;96.70;;;;;;5090908;28;20505;-76
2023/09/06 06:51:38;;;;;;;7.85;3.17;;;23.60;96.70;;;;;;5088512;28;20537;-77
2023/09/06 06:54:15;;;;;;;5.18;3.00;;;23.70;96.70;;;;;;5107492;28;20112;-76
2023/09/06 06:56:44;;;;;;;7.95;3.33;;;23.80;96.70;;;;;;5090033;28;20521;-76
2023/09/06 06:59:13;;;;;;;6.68;2.50;;;23.90;96.70;;;;;;5107654;28;20043;-76
2023/09/06 07:01:41;;;;;;;3.58;1.83;;;23.90;96.70;;;;;;5073092;28;20040;-77
2023/09/06 07:04:10;;;;;;;2.95;2.30;;;24.00;96.70;;;;;;5089568;28;20044;-76
2023/09/06 07:06:38;;;;;;;3.10;1.92;;;24.10;96.70;;;;;;5089726;28;20152;-76
2023/09/06 07:09:06;;;;;;;4.15;1.98;;;24.20;96.70;;;;;;5107653;28;20047;-76
2023/09/06 07:11:36;;;;;;;4.25;1.90;;;24.30;96.70;;;;;;5072318;28;20067;-76
2023/09/06 07:14:04;;;;;;;3.30;1.92;;;24.30;96.70;;;;;;5107305;28;20467;-77
2023/09/06 07:16:33;;;;;;;3.28;1.63;;;24.40;96.70;;;;;;5107760;28;20518;-77
2023/09/06 07:19:02;;;;;;;2.05;1.60;;;24.50;96.70;;;;;;5097199;28;20055;-76
2023/09/06 07:21:31;;;;;;;3.80;1.63;;;24.50;96.70;;;;;;5107260;28;20043;-76
2023/09/06 07:23:59;;;;;;;4.10;1.65;;;24.60;96.70;;;;;;5089722;28;20055;-77
2023/09/06 07:26:27;;;;;;;2.78;1.60;;;24.60;96.70;;;;;;5107635;28;20043;-77
2023/09/06 07:28:57;;;;;;;3.35;1.60;;;24.60;96.70;;;;;;5072510;28;20055;-77
2023/09/06 07:31:25;;;;;;;2.35;1.58;;;24.60;96.70;;;;;;5085437;28;20048;-76
2023/09/06 07:33:54;;;;;;;3.92;1.42;;;24.70;96.70;;;;;;5089812;28;20050;-77
2023/09/06 07:36:22;;;;;;;2.85;1.70;;;24.80;96.70;;;;;;5103412;28;20046;-77
2023/09/06 07:38:54;;;;;;;2.42;1.45;;;24.90;96.70;;;;;;5089217;28;20513;-77
2023/09/06 07:41:25;;;;;;;3.95;1.50;;;24.90;96.70;;;;;;5089740;28;20055;-76
2023/09/06 07:43:54;;;;;;;5.70;1.73;;;25.00;96.70;;;;;;5072275;28;20071;-77
2023/09/06 07:46:26;;;;;;;2.30;1.90;;;25.00;96.70;;;;;;5066497;28;20039;-77
2023/09/06 07:48:55;;;;;;;6.88;1.60;;;25.00;96.70;;;;;;5099660;28;20043;-77
2023/09/06 07:51:23;;;;;;;5.30;2.10;;;25.20;96.70;;;;;;5088719;28;20088;-77
2023/09/06 07:53:52;;;;;;;2.35;1.52;;;25.20;96.70;;;;;;5107170;28;20076;-77
2023/09/06 07:56:20;;;;;;;2.70;1.40;;;25.30;96.70;;;;;;5101620;28;20070;-77
2023/09/06 07:58:48;;;;;;;4.30;1.60;;;25.30;96.70;;;;;;5088370;28;20048;-77
2023/09/06 08:01:16;;;;;;;4.18;1.38;;;25.40;96.70;;;;;;5106593;28;20040;-77
2023/09/06 08:03:48;;;;;;;2.50;1.70;;;25.50;96.70;;;;;;5072115;28;20576;-77
2023/09/06 08:06:16;;;;;;;3.58;1.88;;;25.60;96.70;;;;;;5106540;28;20036;-77
2023/09/06 08:08:45;;;;;;;4.32;1.77;;;25.60;96.70;;;;;;5106627;28;20046;-77
2023/09/06 08:11:17;;;;;;;1.85;1.42;;;25.60;96.70;;;;;;5088692;28;20048;-77
2023/09/06 08:13:46;;;;;;;1.83;1.30;;;25.60;96.70;;;;;;5096710;28;20044;-77
2023/09/06 08:16:14;;;;;;;2.60;1.70;;;25.70;96.70;;;;;;5106891;28;20169;-77
2023/09/06 08:18:44;;;;;;;2.45;1.50;;;25.80;96.70;;;;;;5106493;28;20043;-77
2023/09/06 08:21:15;;;;;;;1.80;1.55;;;25.90;96.70;;;;;;5106316;28;20802;-77
2023/09/06 08:23:44;;;;;;;4.80;1.35;;;26.00;96.70;;;;;;5102080;28;20676;-77
2023/09/06 08:26:12;;;;;;;2.28;1.20;;;26.00;96.70;;;;;;5096270;28;20374;-77
2023/09/06 08:28:42;;;;;;;3.63;1.30;;;26.00;96.70;;;;;;5087872;28;20048;-77
2023/09/06 08:31:10;;;;;;;2.78;1.35;;;26.10;96.70;;;;;;5105952;28;20085;-77
2023/09/06 08:33:39;;;;;;;2.00;1.50;;;26.20;96.70;;;;;;5105725;28;20080;-76
2023/09/06 08:36:07;;;;;;;2.83;1.50;;;26.20;96.70;;;;;;5090222;28;20039;-77
2023/09/06 08:38:37;;;;;;;5.38;1.58;;;26.20;96.70;;;;;;5102782;28;20047;-77
2023/09/06 08:41:07;;;;;;;1.67;1.10;;;26.20;96.70;;;;;;5106284;28;20099;-78
2023/09/06 08:43:38;;;;;;;4.47;1.60;;;26.20;96.70;;;;;;5078606;28;20465;-77
2023/09/06 08:46:13;;;;;;;3.83;1.25;;;26.20;96.70;;;;;;5088107;28;20390;-78
2023/09/06 08:48:43;;;;;;;2.97;1.42;;;26.20;96.70;;;;;;5105478;28;20047;-77
2023/09/06 08:51:11;;;;;;;2.55;1.42;;;26.30;96.70;;;;;;5097351;28;20051;-77
2023/09/06 08:53:43;;;;;;;2.22;1.27;;;26.40;96.70;;;;;;5070927;28;20079;-77
2023/09/06 08:56:15;;;;;;;2.78;1.70;;;26.50;96.70;;;;;;5105844;28;20040;-77
2023/09/06 08:58:44;;;;;;;3.00;1.60;;;26.60;96.70;;;;;;5105655;28;20065;-78
2023/09/06 09:01:12;;;;;;;17.00;2.55;;;26.60;96.70;;;;;;5087620;28;20646;-77
2023/09/06 09:03:40;;;;;;;7.30;1.70;;;26.60;96.70;;;;;;5097469;28;20131;-76
2023/09/06 09:06:10;;;;;;;5.55;1.73;;;26.60;96.70;;;;;;5087270;28;20039;-78
2023/09/06 09:08:42;;;;;;;3.00;1.48;;;26.60;96.70;;;;;;5105263;28;20059;-77
2023/09/06 09:11:12;;;;;;;2.63;1.50;;;26.70;96.70;;;;;;5087918;28;20039;-77
2023/09/06 09:13:41;;;;;;;5.68;1.40;;;26.70;96.70;;;;;;5104730;28;20496;-76
2023/09/06 09:16:10;;;;;;;3.45;1.48;;;26.70;96.70;;;;;;5097240;28;20047;-78
2023/09/06 09:18:41;;;;;;;2.45;1.48;;;26.80;96.70;;;;;;5105481;28;20048;-77
2023/09/06 09:21:11;;;;;;;10.23;1.70;;;26.80;96.70;;;;;;5087995;28;20039;-78
2023/09/06 09:23:46;;;;;;;2.88;1.60;;;26.90;96.70;;;;;;5105183;28;20063;-76
2023/09/06 09:26:19;;;;;;;3.20;1.60;;;27.00;96.70;;;;;;5104854;28;20050;-77
2023/09/06 09:28:48;;;;;;;2.58;1.30;;;27.00;96.70;;;;;;5069804;28;20086;-77
2023/09/06 09:31:16;;;;;;;2.65;1.35;;;27.20;96.70;;;;;;5105436;28;20047;-77
2023/09/06 09:33:50;;;;;;;4.53;1.90;;;27.20;96.70;;;;;;5083480;28;20056;-78
2023/09/06 09:36:19;;;;;;;2.78;1.48;;;27.20;96.70;;;;;;5066513;28;20055;-79
2023/09/06 09:38:51;;;;;;;2.15;1.60;;;27.10;96.70;;;;;;5076487;28;20073;-77
2023/09/06 09:41:20;;;;;;;3.65;1.60;;;27.10;96.70;;;;;;5083489;28;20062;-77
2023/09/06 09:43:48;;;;;;;3.38;1.80;;;27.20;96.70;;;;;;5083136;28;20048;-77
2023/09/06 09:46:28;;;;;;;2.80;1.67;;;27.20;96.70;;;;;;5084756;28;20101;-77
2023/09/06 09:49:01;;;;;;;2.58;1.50;;;27.30;96.70;;;;;;5083301;28;20489;-77
2023/09/06 09:51:32;;;;;;;2.30;1.50;;;27.40;96.70;;;;;;5081340;28;20059;-77
2023/09/06 09:54:04;;;;;;;3.63;2.10;;;27.60;96.70;;;;;;5082056;28;20457;-77
2023/09/06 09:56:33;;;;;;;2.50;1.50;;;27.70;96.70;;;;;;5066732;28;20066;-76
2023/09/06 09:59:03;;;;;;;2.88;1.55;;;27.70;96.70;;;;;;5084440;28;20114;-77
2023/09/06 10:01:32;;;;;;;2.67;1.50;;;27.70;96.70;;;;;;5076838;28;20040;-77
2023/09/06 10:04:05;;;;;;;3.80;1.80;;;27.70;96.70;;;;;;5066268;28;20161;-77
2023/09/06 10:06:34;;;;;;;3.85;1.88;;;28.00;96.70;;;;;;5084627;28;20071;-77
2023/09/06 10:09:12;;;;;;;3.53;1.60;;;28.30;96.70;;;;;;5084813;28;20075;-77
2023/09/06 10:11:42;;;;;;;1.50;1.40;;;28.40;96.70;;;;;;5076275;28;20064;-77
2023/09/06 10:14:12;;;;;;;4.70;2.08;;;28.30;96.70;;;;;;5084251;28;20379;-77
2023/09/06 10:16:40;;;;;;;3.58;1.60;;;28.60;96.70;;;;;;5084538;28;20040;-78
2023/09/06 10:19:11;;;;;;;3.40;1.80;;;28.60;96.70;;;;;;5087054;28;20420;-77
2023/09/06 10:21:41;;;;;;;3.47;1.70;;;28.50;96.70;;;;;;5088250;28;20097;-77
2023/09/06 10:24:16;;;;;;;2.47;1.52;;;28.50;96.70;;;;;;5076934;28;20048;-77
2023/09/06 10:26:46;;;;;;;2.80;1.80;;;28.70;96.70;;;;;;5087314;28;20493;-80
2023/09/06 10:29:19;;;;;;;2.90;1.48;;;28.90;96.70;;;;;;5069169;28;20324;-77
2023/09/06 10:31:49;;;;;;;4.07;2.00;;;28.70;96.70;;;;;;5088552;28;20549;-77
2023/09/06 10:34:18;;;;;;;2.53;1.83;;;28.70;96.70;;;;;;5097880;28;20101;-77
2023/09/06 10:36:53;;;;;;;4.03;1.70;;;28.70;96.70;;;;;;5107977;28;20048;-78
2023/09/06 10:39:25;;;;;;;2.70;1.33;;;28.90;96.70;;;;;;5090755;28;20109;-78
2023/09/06 10:42:16;;;;;;;2.47;1.80;;;29.10;96.70;;;;;;5090479;28;20451;-77
2023/09/06 10:45:11;;;;;;;2.83;1.90;;;29.40;96.70;;;;;;5091400;28;20120;-78
2023/09/06 10:47:40;;;;;;;7.40;1.70;;;29.50;96.70;;;;;;5073503;28;20669;-77
2023/09/06 10:50:16;;;;;;;3.20;1.75;;;29.30;96.70;;;;;;5107861;28;20071;-77
2023/09/06 10:52:48;;;;;;;3.83;1.70;;;29.20;96.70;;;;;;5090647;28;20062;-77
2023/09/06 10:55:20;;;;;;;3.28;1.88;;;29.20;96.70;;;;;;5090329;28;20058;-78
2023/09/06 10:57:56;;;;;;;3.83;2.10;;;29.20;96.70;;;;;;5107678;28;20036;-77
2023/09/06 11:00:27;;;;;;;2.55;1.73;;;29.10;96.70;;;;;;5081653;28;20533;-77
2023/09/06 11:03:17;;;;;;;2.63;1.80;;;29.20;96.70;;;;;;5108023;28;20385;-77
2023/09/06 11:05:56;;;;;;;3.67;1.77;;;29.20;96.70;;;;;;5108249;28;20074;-78
2023/09/06 11:08:29;;;;;;;3.45;2.00;;;29.30;96.70;;;;;;5081470;28;20073;-77
2023/09/06 11:11:07;;;;;;;3.30;1.35;;;29.30;96.70;;;;;;5073729;28;20053;-78
2023/09/06 11:13:36;;;;;;;3.33;1.60;;;29.40;96.70;;;;;;5107490;28;20050;-77
2023/09/06 11:16:10;;;;;;;3.58;1.65;;;29.50;96.70;;;;;;5089487;28;20066;-78
2023/09/06 11:18:46;;;;;;;3.08;1.45;;;29.70;96.70;;;;;;5100526;28;20117;-78
2023/09/06 11:21:18;;;;;;;;;;;29.60;96.70;;;;;;5100165;28;20522;-78
2023/09/06 11:23:48;;;;;;;3.78;1.70;;;29.70;96.70;;;;;;5092809;28;20380;-77
2023/09/06 11:26:19;;;;;;;2.38;1.60;;;29.80;96.70;;;;;;5089336;28;20109;-78
2023/09/06 11:28:47;;;;;;;2.13;1.58;;;29.80;96.70;;;;;;5099110;28;20047;-78
2023/09/06 11:31:25;;;;;;;2.00;1.60;;;30.00;96.70;;;;;;5106609;28;20032;-77
2023/09/06 11:34:04;;;;;;;4.95;1.95;;;29.90;96.70;;;;;;5092895;28;20421;-78
2023/09/06 11:36:36;;;;;;;2.35;1.58;;;30.10;96.70;;;;;;5096634;28;20493;-77
2023/09/06 11:39:18;;;;;;;3.40;1.60;;;30.20;96.70;;;;;;5089340;28;20499;-78
2023/09/06 11:41:50;;;;;;;2.65;1.63;;;30.20;96.70;;;;;;5104577;28;20048;-80
2023/09/06 11:44:19;;;;;;;4.97;1.63;;;30.20;96.70;;;;;;5104673;28;20138;-78
2023/09/06 11:46:48;;;;;;;2.90;1.60;;;30.20;96.70;;;;;;5103471;28;20040;-77
2023/09/06 11:49:21;;;;;;;4.53;2.05;;;30.20;96.70;;;;;;5105725;28;20063;-77
2023/09/06 11:51:52;;;;;;;1.90;1.80;;;30.20;96.70;;;;;;5099094;28;20043;-78
2023/09/06 11:54:26;;;;;;;2.72;1.55;;;30.20;96.70;;;;;;5105912;28;20714;-77
2023/09/06 11:56:57;;;;;;;2.20;1.60;;;30.30;96.70;;;;;;5103598;28;20358;-78
2023/09/06 11:59:29;;;;;;;4.18;1.60;;;30.40;96.70;;;;;;5087646;28;20085;-77
2023/09/06 12:01:59;;;;;;;3.17;1.58;;;30.60;96.70;;;;;;5105421;28;20047;-77
2023/09/06 12:04:29;;;;;;;2.65;1.52;;;30.70;96.70;;;;;;5087270;28;20135;-78
2023/09/06 12:07:00;;;;;;;3.15;1.58;;;30.70;96.70;;;;;;5104121;28;20039;-77
2023/09/06 12:09:29;;;;;;;3.38;2.00;;;30.60;96.70;;;;;;5094412;28;20402;-77
2023/09/06 12:11:59;;;;;;;1.95;1.40;;;30.80;96.70;;;;;;5086958;28;20133;-79
2023/09/06 12:14:29;;;;;;;2.53;1.45;;;30.80;96.70;;;;;;5093036;28;20421;-76
2023/09/06 12:16:57;;;;;;;3.03;2.00;;;30.70;96.70;;;;;;5100052;28;20077;-77
2023/09/06 12:19:27;;;;;;;4.25;1.75;;;30.80;96.70;;;;;;5103679;28;20093;-77
2023/09/06 12:21:56;;;;;;;3.72;2.03;;;30.90;96.70;;;;;;5099274;28;20051;-78
2023/09/06 12:24:26;;;;;;;6.75;1.75;;;30.90;96.70;;;;;;5103666;28;20051;-77
2023/09/06 12:26:55;;;;;;;2.10;1.40;;;30.90;96.70;;;;;;5086741;28;20046;-77
2023/09/06 12:29:25;;;;;;;2.63;1.80;;;31.00;96.70;;;;;;5095206;28;20055;-77
2023/09/06 12:31:53;;;;;;;2.30;1.58;;;31.10;96.70;;;;;;5096937;28;20035;-78
2023/09/06 12:34:21;;;;;;;5.05;1.85;;;31.10;96.70;;;;;;5103652;28;20063;-78
2023/09/06 12:36:49;;;;;;;2.70;1.70;;;31.30;96.70;;;;;;5090362;28;20040;-79
2023/09/06 12:39:18;;;;;;;4.30;1.48;;;31.40;96.70;;;;;;5105051;28;20122;-78
2023/09/06 12:41:47;;;;;;;2.78;1.85;;;31.30;96.70;;;;;;5102324;28;20042;-77
2023/09/06 12:44:16;;;;;;;4.22;1.80;;;31.30;96.70;;;;;;5100114;28;20043;-77
2023/09/06 12:46:47;;;;;;;3.25;1.80;;;31.40;96.70;;;;;;5103178;28;20035;-77
2023/09/06 12:49:16;;;;;;;5.28;2.15;;;31.50;96.70;;;;;;5086052;28;20082;-77
2023/09/06 12:51:47;;;;;;;3.05;1.50;;;31.60;96.70;;;;;;5104639;28;20039;-77
2023/09/06 12:54:17;;;;;;;3.08;1.40;;;31.70;96.70;;;;;;5104192;28;20093;-78
2023/09/06 12:56:45;;;;;;;2.00;1.80;;;31.90;96.70;;;;;;5102773;28;20036;-78
2023/09/06 12:59:13;;;;;;;3.63;1.65;;;31.90;96.70;;;;;;5102366;28;20043;-77
2023/09/06 13:01:41;;;;;;;2.05;1.42;;;31.80;96.70;;;;;;5103797;28;20036;-77
2023/09/06 13:04:12;;;;;;;3.17;1.90;;;31.60;96.70;;;;;;5086186;28;20075;-77